sensor_id;sensor_type;location;lat;lon;timestamp;pressure;altitude;pressure_sealevel;temperature;humidity
43804;BME280;29430;52.924;-2.388;2023-05-10T00:03:55;98738.56;;;10.73;86.19
43804;BME280;29430;52.924;-2.388;2023-05-10T00:08:47;98740.63;;;10.66;86.79
43804;BME280;29430;52.924;-2.388;2023-05-10T00:13:38;98738.66;;;10.62;86.71
43804;BME280;29430;52.924;-2.388;2023-05-10T00:18:30;98739.84;;;10.54;87.11
43804;BME280;29430;52.924;-2.388;2023-05-10T00:23:21;98742.97;;;10.46;86.67
43804;BME280;29430;52.924;-2.388;2023-05-10T00:28:13;98741.44;;;10.38;86.86
43804;BME280;29430;52.924;-2.388;2023-05-10T00:33:05;98740.97;;;10.29;86.61
43804;BME280;29430;52.924;-2.388;2023-05-10T00:37:56;98737.78;;;10.20;87.17
43804;BME280;29430;52.924;-2.388;2023-05-10T00:42:48;98738.75;;;10.14;87.55
43804;BME280;29430;52.924;-2.388;2023-05-10T00:47:39;98739.72;;;10.08;88.34
43804;BME280;29430;52.924;-2.388;2023-05-10T00:52:32;98739.94;;;10.07;88.37
43804;BME280;29430;52.924;-2.388;2023-05-10T00:57:24;98736.09;;;10.02;88.44
43804;BME280;29430;52.924;-2.388;2023-05-10T01:02:15;98729.50;;;9.98;88.71
43804;BME280;29430;52.924;-2.388;2023-05-10T01:07:07;98724.78;;;9.94;89.07
43804;BME280;29430;52.924;-2.388;2023-05-10T01:11:59;98722.78;;;9.89;88.15
43804;BME280;29430;52.924;-2.388;2023-05-10T01:16:53;98726.78;;;9.86;88.62
43804;BME280;29430;52.924;-2.388;2023-05-10T01:37:04;98722.44;;;9.62;91.25
43804;BME280;29430;52.924;-2.388;2023-05-10T01:42:08;98726.09;;;9.56;92.36
43804;BME280;29430;52.924;-2.388;2023-05-10T01:47:37;98724.09;;;9.51;92.34
43804;BME280;29430;52.924;-2.388;2023-05-10T01:52:38;98717.75;;;9.45;93.66
43804;BME280;29430;52.924;-2.388;2023-05-10T01:57:37;98730.34;;;9.40;93.82
43804;BME280;29430;52.924;-2.388;2023-05-10T02:07:37;98730.81;;;9.37;94.88
43804;BME280;29430;52.924;-2.388;2023-05-10T02:12:31;98737.50;;;9.34;94.23
43804;BME280;29430;52.924;-2.388;2023-05-10T02:17:23;98728.00;;;9.31;94.45
43804;BME280;29430;52.924;-2.388;2023-05-10T02:22:16;98729.03;;;9.30;95.24
43804;BME280;29430;52.924;-2.388;2023-05-10T02:27:09;98728.94;;;9.25;96.01
43804;BME280;29430;52.924;-2.388;2023-05-10T02:32:03;98733.63;;;9.18;96.17
43804;BME280;29430;52.924;-2.388;2023-05-10T02:36:56;98728.31;;;9.11;96.75
43804;BME280;29430;52.924;-2.388;2023-05-10T02:41:48;98735.81;;;9.09;97.81
43804;BME280;29430;52.924;-2.388;2023-05-10T02:46:41;98748.31;;;9.10;98.09
43804;BME280;29430;52.924;-2.388;2023-05-10T02:51:35;98740.19;;;9.10;99.03
43804;BME280;29430;52.924;-2.388;2023-05-10T02:56:31;98738.28;;;9.11;99.48
43804;BME280;29430;52.924;-2.388;2023-05-10T03:01:24;98743.25;;;9.14;99.79
43804;BME280;29430;52.924;-2.388;2023-05-10T03:06:16;98746.56;;;9.16;99.51
43804;BME280;29430;52.924;-2.388;2023-05-10T03:16:07;98746.22;;;9.24;99.62
43804;BME280;29430;52.924;-2.388;2023-05-10T03:21:02;98746.78;;;9.26;100.00
43804;BME280;29430;52.924;-2.388;2023-05-10T03:25:56;98742.00;;;9.28;100.00
43804;BME280;29430;52.924;-2.388;2023-05-10T03:30:49;98742.56;;;9.30;100.00
43804;BME280;29430;52.924;-2.388;2023-05-10T03:35:41;98741.88;;;9.35;100.00
43804;BME280;29430;52.924;-2.388;2023-05-10T03:40:32;98745.53;;;9.41;100.00
43804;BME280;29430;52.924;-2.388;2023-05-10T03:45:24;98746.47;;;9.46;100.00
43804;BME280;29430;52.924;-2.388;2023-05-10T03:50:16;98735.53;;;9.53;100.00
43804;BME280;29430;52.924;-2.388;2023-05-10T03:55:08;98752.69;;;9.59;100.00
43804;BME280;29430;52.924;-2.388;2023-05-10T04:00:00;98752.22;;;9.62;100.00
43804;BME280;29430;52.924;-2.388;2023-05-10T04:04:52;98747.66;;;9.62;100.00
43804;BME280;29430;52.924;-2.388;2023-05-10T04:09:43;98746.94;;;9.55;100.00
43804;BME280;29430;52.924;-2.388;2023-05-10T04:14:35;98748.00;;;9.54;100.00
43804;BME280;29430;52.924;-2.388;2023-05-10T04:19:30;98745.06;;;9.56;100.00
43804;BME280;29430;52.924;-2.388;2023-05-10T04:24:21;98738.34;;;9.58;100.00
43804;BME280;29430;52.924;-2.388;2023-05-10T04:29:13;98738.34;;;9.58;100.00
43804;BME280;29430;52.924;-2.388;2023-05-10T04:34:05;98741.06;;;9.58;100.00
43804;BME280;29430;52.924;-2.388;2023-05-10T04:38:56;98746.00;;;9.61;100.00
43804;BME280;29430;52.924;-2.388;2023-05-10T04:43:48;98753.66;;;9.64;100.00
43804;BME280;29430;52.924;-2.388;2023-05-10T04:48:40;98742.25;;;9.62;100.00
43804;BME280;29430;52.924;-2.388;2023-05-10T04:53:32;98743.28;;;9.61;100.00
43804;BME280;29430;52.924;-2.388;2023-05-10T04:58:24;98744.56;;;9.59;99.86
43804;BME280;29430;52.924;-2.388;2023-05-10T05:03:16;98748.59;;;9.56;99.77
43804;BME280;29430;52.924;-2.388;2023-05-10T05:08:08;98742.72;;;9.59;100.00
43804;BME280;29430;52.924;-2.388;2023-05-10T05:12:59;98744.69;;;9.88;100.00
43804;BME280;29430;52.924;-2.388;2023-05-10T05:17:51;98741.34;;;10.21;100.00
43804;BME280;29430;52.924;-2.388;2023-05-10T05:22:43;98747.31;;;10.75;100.00
43804;BME280;29430;52.924;-2.388;2023-05-10T05:27:34;98761.44;;;11.40;97.92
43804;BME280;29430;52.924;-2.388;2023-05-10T05:32:26;98769.16;;;11.99;95.12
43804;BME280;29430;52.924;-2.388;2023-05-10T05:37:19;98771.75;;;12.56;92.92
43804;BME280;29430;52.924;-2.388;2023-05-10T05:42:12;98765.00;;;13.13;90.39
43804;BME280;29430;52.924;-2.388;2023-05-10T05:47:05;98767.84;;;13.55;86.25
43804;BME280;29430;52.924;-2.388;2023-05-10T05:52:01;98764.69;;;13.69;86.96
43804;BME280;29430;52.924;-2.388;2023-05-10T05:56:54;98774.22;;;14.14;84.79
43804;BME280;29430;52.924;-2.388;2023-05-10T06:01:46;98780.97;;;14.49;81.74
43804;BME280;29430;52.924;-2.388;2023-05-10T06:06:38;98775.41;;;14.97;80.08
43804;BME280;29430;52.924;-2.388;2023-05-10T06:11:30;98786.38;;;15.58;78.88
43804;BME280;29430;52.924;-2.388;2023-05-10T06:16:23;98790.16;;;16.19;74.73
43804;BME280;29430;52.924;-2.388;2023-05-10T06:21:15;98793.56;;;16.61;70.83
43804;BME280;29430;52.924;-2.388;2023-05-10T06:26:07;98804.59;;;16.45;69.43
43804;BME280;29430;52.924;-2.388;2023-05-10T06:30:59;98797.38;;;16.70;71.85
43804;BME280;29430;52.924;-2.388;2023-05-10T06:35:51;98800.75;;;17.07;68.55
43804;BME280;29430;52.924;-2.388;2023-05-10T06:40:43;98807.16;;;16.92;69.16
43804;BME280;29430;52.924;-2.388;2023-05-10T06:45:35;98811.94;;;16.55;70.88
43804;BME280;29430;52.924;-2.388;2023-05-10T06:50:26;98812.03;;;16.19;70.87
43804;BME280;29430;52.924;-2.388;2023-05-10T06:55:18;98813.47;;;15.81;72.08
43804;BME280;29430;52.924;-2.388;2023-05-10T07:00:10;98809.31;;;15.47;74.17
43804;BME280;29430;52.924;-2.388;2023-05-10T07:05:02;98806.84;;;15.25;75.21
43804;BME280;29430;52.924;-2.388;2023-05-10T07:09:54;98812.25;;;14.99;75.17
43804;BME280;29430;52.924;-2.388;2023-05-10T07:14:45;98815.47;;;14.81;77.16
43804;BME280;29430;52.924;-2.388;2023-05-10T07:19:38;98817.06;;;14.61;78.11
43804;BME280;29430;52.924;-2.388;2023-05-10T07:24:29;98806.59;;;14.53;79.80
43804;BME280;29430;52.924;-2.388;2023-05-10T07:29:22;98807.97;;;14.50;79.69
43804;BME280;29430;52.924;-2.388;2023-05-10T07:34:14;98812.38;;;14.57;80.45
43804;BME280;29430;52.924;-2.388;2023-05-10T07:39:06;98815.72;;;14.69;81.47
43804;BME280;29430;52.924;-2.388;2023-05-10T07:43:58;98815.53;;;14.91;80.07
43804;BME280;29430;52.924;-2.388;2023-05-10T07:48:49;98816.38;;;14.97;79.02
43804;BME280;29430;52.924;-2.388;2023-05-10T07:53:41;98814.47;;;15.08;78.18
43804;BME280;29430;52.924;-2.388;2023-05-10T07:58:33;98814.47;;;15.08;78.35
43804;BME280;29430;52.924;-2.388;2023-05-10T08:03:24;98812.56;;;15.13;78.13
43804;BME280;29430;52.924;-2.388;2023-05-10T08:08:16;98814.22;;;15.19;77.87
43804;BME280;29430;52.924;-2.388;2023-05-10T08:13:08;98816.41;;;15.17;78.58
43804;BME280;29430;52.924;-2.388;2023-05-10T08:18:00;98816.94;;;15.19;79.83
43804;BME280;29430;52.924;-2.388;2023-05-10T08:22:52;98823.81;;;15.37;80.47
43804;BME280;29430;52.924;-2.388;2023-05-10T08:27:43;98818.38;;;15.63;78.28
43804;BME280;29430;52.924;-2.388;2023-05-10T08:32:35;98821.09;;;15.68;76.48
43804;BME280;29430;52.924;-2.388;2023-05-10T08:37:29;98825.47;;;15.74;78.39
43804;BME280;29430;52.924;-2.388;2023-05-10T08:42:22;98831.22;;;15.78;77.62
43804;BME280;29430;52.924;-2.388;2023-05-10T08:47:17;98833.38;;;15.66;79.68
43804;BME280;29430;52.924;-2.388;2023-05-10T08:52:11;98832.56;;;15.65;80.57
43804;BME280;29430;52.924;-2.388;2023-05-10T08:57:04;98827.13;;;15.81;80.57
43804;BME280;29430;52.924;-2.388;2023-05-10T09:01:57;98829.28;;;16.09;80.04
43804;BME280;29430;52.924;-2.388;2023-05-10T09:06:50;98822.50;;;16.82;81.89
43804;BME280;29430;52.924;-2.388;2023-05-10T09:11:42;98823.78;;;17.45;71.21
43804;BME280;29430;52.924;-2.388;2023-05-10T09:16:33;98818.41;;;17.69;71.13
43804;BME280;29430;52.924;-2.388;2023-05-10T09:21:25;98816.94;;;18.12;69.80
43804;BME280;29430;52.924;-2.388;2023-05-10T09:26:22;98818.97;;;18.54;68.65
43804;BME280;29430;52.924;-2.388;2023-05-10T09:31:14;98824.16;;;18.80;66.51
43804;BME280;29430;52.924;-2.388;2023-05-10T09:36:08;98813.06;;;18.66;65.66
43804;BME280;29430;52.924;-2.388;2023-05-10T09:41:00;98810.22;;;19.33;66.78
43804;BME280;29430;52.924;-2.388;2023-05-10T09:45:53;98805.63;;;20.14;59.69
43804;BME280;29430;52.924;-2.388;2023-05-10T09:50:45;98817.06;;;20.21;58.95
43804;BME280;29430;52.924;-2.388;2023-05-10T09:55:47;98809.69;;;19.70;57.83
43804;BME280;29430;52.924;-2.388;2023-05-10T10:00:42;98829.41;;;19.01;61.82
43804;BME280;29430;52.924;-2.388;2023-05-10T10:05:34;98831.75;;;18.40;64.24
43804;BME280;29430;52.924;-2.388;2023-05-10T10:10:28;98833.69;;;18.10;70.08
43804;BME280;29430;52.924;-2.388;2023-05-10T10:15:23;98830.81;;;17.96;73.43
43804;BME280;29430;52.924;-2.388;2023-05-10T10:20:15;98819.97;;;18.10;74.00
43804;BME280;29430;52.924;-2.388;2023-05-10T10:25:08;98810.03;;;18.68;74.57
43804;BME280;29430;52.924;-2.388;2023-05-10T10:35:19;98815.97;;;19.37;64.25
43804;BME280;29430;52.924;-2.388;2023-05-10T10:45:14;98803.97;;;18.66;65.73
43804;BME280;29430;52.924;-2.388;2023-05-10T10:50:06;98800.34;;;18.70;68.63
43804;BME280;29430;52.924;-2.388;2023-05-10T10:55:19;98792.25;;;19.22;65.82
43804;BME280;29430;52.924;-2.388;2023-05-10T11:00:26;98808.88;;;19.50;69.55
43804;BME280;29430;52.924;-2.388;2023-05-10T11:05:41;98803.88;;;19.71;67.95
43804;BME280;29430;52.924;-2.388;2023-05-10T11:10:33;98795.22;;;19.45;66.09
43804;BME280;29430;52.924;-2.388;2023-05-10T11:15:29;98792.91;;;18.95;67.50
43804;BME280;29430;52.924;-2.388;2023-05-10T11:20:21;98798.75;;;18.69;69.20
43804;BME280;29430;52.924;-2.388;2023-05-10T11:25:16;98796.69;;;18.56;72.34
43804;BME280;29430;52.924;-2.388;2023-05-10T11:30:09;98782.91;;;18.85;73.59
43804;BME280;29430;52.924;-2.388;2023-05-10T11:35:09;98782.22;;;19.31;70.60
43804;BME280;29430;52.924;-2.388;2023-05-10T11:40:01;98784.59;;;19.38;66.07
43804;BME280;29430;52.924;-2.388;2023-05-10T11:44:54;98774.25;;;19.49;68.68
43804;BME280;29430;52.924;-2.388;2023-05-10T11:49:47;98771.75;;;19.85;63.29
43804;BME280;29430;52.924;-2.388;2023-05-10T11:54:51;98772.88;;;19.65;63.06
43804;BME280;29430;52.924;-2.388;2023-05-10T11:59:42;98774.19;;;19.35;61.23
43804;BME280;29430;52.924;-2.388;2023-05-10T12:04:34;98783.50;;;19.01;63.14
43804;BME280;29430;52.924;-2.388;2023-05-10T12:09:26;98779.84;;;18.63;65.34
43804;BME280;29430;52.924;-2.388;2023-05-10T12:14:34;98786.38;;;18.48;69.73
43804;BME280;29430;52.924;-2.388;2023-05-10T12:19:27;98780.63;;;18.44;70.29
43804;BME280;29430;52.924;-2.388;2023-05-10T12:24:18;98771.56;;;18.19;69.50
43804;BME280;29430;52.924;-2.388;2023-05-10T12:34:07;98773.75;;;17.98;67.75
43804;BME280;29430;52.924;-2.388;2023-05-10T12:39:02;98772.44;;;18.15;68.33
43804;BME280;29430;52.924;-2.388;2023-05-10T12:43:54;98769.66;;;18.20;67.32
43804;BME280;29430;52.924;-2.388;2023-05-10T12:48:46;98770.47;;;18.45;69.67
43804;BME280;29430;52.924;-2.388;2023-05-10T12:53:50;98766.81;;;18.73;67.28
43804;BME280;29430;52.924;-2.388;2023-05-10T12:58:42;98775.47;;;18.86;65.25
43804;BME280;29430;52.924;-2.388;2023-05-10T13:03:39;98788.44;;;18.80;62.29
43804;BME280;29430;52.924;-2.388;2023-05-10T13:08:31;98779.03;;;18.86;63.37
43804;BME280;29430;52.924;-2.388;2023-05-10T13:13:25;98776.97;;;18.97;61.96
43804;BME280;29430;52.924;-2.388;2023-05-10T13:18:16;98780.75;;;19.01;59.66
43804;BME280;29430;52.924;-2.388;2023-05-10T13:23:08;98780.38;;;18.89;59.99
43804;BME280;29430;52.924;-2.388;2023-05-10T13:28:01;98789.75;;;18.83;63.09
43804;BME280;29430;52.924;-2.388;2023-05-10T13:32:53;98783.69;;;18.86;60.73
43804;BME280;29430;52.924;-2.388;2023-05-10T13:37:44;98793.94;;;18.80;62.89
43804;BME280;29430;52.924;-2.388;2023-05-10T13:42:36;98782.69;;;18.76;62.44
43804;BME280;29430;52.924;-2.388;2023-05-10T13:47:28;98793.69;;;18.76;61.04
43804;BME280;29430;52.924;-2.388;2023-05-10T13:52:20;98798.56;;;18.85;62.66
43804;BME280;29430;52.924;-2.388;2023-05-10T13:57:12;98791.69;;;18.82;60.41
43804;BME280;29430;52.924;-2.388;2023-05-10T14:02:05;98809.00;;;18.83;61.93
43804;BME280;29430;52.924;-2.388;2023-05-10T14:06:57;98797.91;;;19.12;61.95
43804;BME280;29430;52.924;-2.388;2023-05-10T14:11:49;98802.38;;;19.08;60.28
43804;BME280;29430;52.924;-2.388;2023-05-10T14:16:44;98827.78;;;18.51;62.56
43804;BME280;29430;52.924;-2.388;2023-05-10T14:21:36;98838.97;;;17.72;64.42
43804;BME280;29430;52.924;-2.388;2023-05-10T14:26:27;98850.38;;;17.00;66.37
43804;BME280;29430;52.924;-2.388;2023-05-10T14:31:19;98842.81;;;16.66;68.49
43804;BME280;29430;52.924;-2.388;2023-05-10T14:36:12;98833.88;;;16.40;69.15
43804;BME280;29430;52.924;-2.388;2023-05-10T14:41:04;98835.31;;;16.11;71.60
43804;BME280;29430;52.924;-2.388;2023-05-10T14:45:56;98832.06;;;15.99;71.18
43804;BME280;29430;52.924;-2.388;2023-05-10T14:50:47;98835.63;;;15.79;72.96
43804;BME280;29430;52.924;-2.388;2023-05-10T14:55:41;98824.63;;;15.69;72.98
43804;BME280;29430;52.924;-2.388;2023-05-10T15:00:32;98830.09;;;15.38;75.67
43804;BME280;29430;52.924;-2.388;2023-05-10T15:05:24;98824.34;;;15.29;76.28
43804;BME280;29430;52.924;-2.388;2023-05-10T15:10:17;98828.72;;;15.25;76.86
43804;BME280;29430;52.924;-2.388;2023-05-10T15:15:09;98829.00;;;15.34;76.32
43804;BME280;29430;52.924;-2.388;2023-05-10T15:20:01;98837.47;;;15.58;76.88
43804;BME280;29430;52.924;-2.388;2023-05-10T15:24:54;98840.81;;;15.81;75.50
43804;BME280;29430;52.924;-2.388;2023-05-10T15:29:46;98837.25;;;16.01;74.94
43804;BME280;29430;52.924;-2.388;2023-05-10T15:34:39;98827.66;;;16.08;74.83
43804;BME280;29430;52.924;-2.388;2023-05-10T15:39:30;98827.66;;;16.03;74.92
43804;BME280;29430;52.924;-2.388;2023-05-10T15:44:22;98826.53;;;16.09;74.66
43804;BME280;29430;52.924;-2.388;2023-05-10T15:49:14;98826.28;;;16.16;73.74
43804;BME280;29430;52.924;-2.388;2023-05-10T15:54:06;98828.72;;;16.23;69.54
43804;BME280;29430;52.924;-2.388;2023-05-10T15:59:00;98844.59;;;16.16;69.76
43804;BME280;29430;52.924;-2.388;2023-05-10T16:03:51;98836.09;;;16.17;69.25
43804;BME280;29430;52.924;-2.388;2023-05-10T16:08:43;98845.69;;;16.15;69.66
43804;BME280;29430;52.924;-2.388;2023-05-10T16:13:34;98847.88;;;16.13;69.20
43804;BME280;29430;52.924;-2.388;2023-05-10T16:18:26;98838.31;;;16.10;67.83
43804;BME280;29430;52.924;-2.388;2023-05-10T16:23:18;98845.16;;;16.07;67.54
43804;BME280;29430;52.924;-2.388;2023-05-10T16:28:10;98844.06;;;16.03;68.23
43804;BME280;29430;52.924;-2.388;2023-05-10T16:33:02;98848.72;;;16.03;68.91
43804;BME280;29430;52.924;-2.388;2023-05-10T16:37:54;98861.31;;;16.04;67.97
43804;BME280;29430;52.924;-2.388;2023-05-10T16:42:45;98859.66;;;15.98;68.70
43804;BME280;29430;52.924;-2.388;2023-05-10T16:47:38;98855.56;;;15.95;68.86
43804;BME280;29430;52.924;-2.388;2023-05-10T16:52:31;98867.06;;;15.87;69.79
43804;BME280;29430;52.924;-2.388;2023-05-10T16:57:23;98867.63;;;15.79;70.14
43804;BME280;29430;52.924;-2.388;2023-05-10T17:02:14;98873.59;;;15.75;70.82
43804;BME280;29430;52.924;-2.388;2023-05-10T17:07:06;98870.31;;;15.73;70.37
43804;BME280;29430;52.924;-2.388;2023-05-10T17:11:59;98872.50;;;15.66;70.86
43804;BME280;29430;52.924;-2.388;2023-05-10T17:16:51;98864.84;;;15.63;71.44
43804;BME280;29430;52.924;-2.388;2023-05-10T17:21:43;98867.31;;;15.65;71.26
43804;BME280;29430;52.924;-2.388;2023-05-10T17:26:35;98877.97;;;15.66;72.15
43804;BME280;29430;52.924;-2.388;2023-05-10T17:31:27;98879.03;;;15.70;72.51
43804;BME280;29430;52.924;-2.388;2023-05-10T17:36:20;98872.50;;;15.76;72.14
43804;BME280;29430;52.924;-2.388;2023-05-10T17:41:13;98880.16;;;15.74;70.30
43804;BME280;29430;52.924;-2.388;2023-05-10T17:46:05;98875.78;;;15.68;69.76
43804;BME280;29430;52.924;-2.388;2023-05-10T17:50:56;98875.78;;;15.63;70.06
43804;BME280;29430;52.924;-2.388;2023-05-10T17:55:50;98874.66;;;15.59;70.76
43804;BME280;29430;52.924;-2.388;2023-05-10T18:00:42;98873.00;;;15.43;70.11
43804;BME280;29430;52.924;-2.388;2023-05-10T18:05:35;98869.69;;;15.30;71.26
43804;BME280;29430;52.924;-2.388;2023-05-10T18:10:27;98875.16;;;15.25;71.98
43804;BME280;29430;52.924;-2.388;2023-05-10T18:15:19;98874.84;;;15.16;72.25
43804;BME280;29430;52.924;-2.388;2023-05-10T18:20:11;98880.31;;;15.11;73.26
43804;BME280;29430;52.924;-2.388;2023-05-10T18:25:03;98890.38;;;15.06;72.79
43804;BME280;29430;52.924;-2.388;2023-05-10T18:29:55;98895.84;;;15.00;73.33
43804;BME280;29430;52.924;-2.388;2023-05-10T18:34:47;98893.91;;;14.91;73.30
43804;BME280;29430;52.924;-2.388;2023-05-10T18:39:39;98902.31;;;14.84;73.60
43804;BME280;29430;52.924;-2.388;2023-05-10T18:44:31;98907.75;;;14.74;72.84
43804;BME280;29430;52.924;-2.388;2023-05-10T18:49:22;98907.16;;;14.66;73.44
43804;BME280;29430;52.924;-2.388;2023-05-10T18:54:14;98910.03;;;14.55;73.14
43804;BME280;29430;52.924;-2.388;2023-05-10T18:59:06;98914.34;;;14.45;73.51
43804;BME280;29430;52.924;-2.388;2023-05-10T19:03:58;98916.72;;;14.31;74.81
43804;BME280;29430;52.924;-2.388;2023-05-10T19:08:49;98918.28;;;14.22;74.79
43804;BME280;29430;52.924;-2.388;2023-05-10T19:13:41;98923.41;;;14.13;75.68
43804;BME280;29430;52.924;-2.388;2023-05-10T19:18:33;98920.94;;;14.12;75.94
43804;BME280;29430;52.924;-2.388;2023-05-10T19:23:25;98929.28;;;14.00;76.26
43804;BME280;29430;52.924;-2.388;2023-05-10T19:28:17;98925.41;;;13.91;76.98
43804;BME280;29430;52.924;-2.388;2023-05-10T19:33:09;98937.59;;;13.83;76.80
43804;BME280;29430;52.924;-2.388;2023-05-10T19:38:03;98945.66;;;13.73;77.12
43804;BME280;29430;52.924;-2.388;2023-05-10T19:42:55;98945.63;;;13.68;77.94
43804;BME280;29430;52.924;-2.388;2023-05-10T19:47:47;98950.44;;;13.60;78.44
43804;BME280;29430;52.924;-2.388;2023-05-10T19:52:39;98952.25;;;13.50;78.41
43804;BME280;29430;52.924;-2.388;2023-05-10T19:57:30;98962.28;;;13.44;78.82
43804;BME280;29430;52.924;-2.388;2023-05-10T20:02:22;98972.28;;;13.38;78.85
43804;BME280;29430;52.924;-2.388;2023-05-10T20:07:13;98963.13;;;13.28;79.54
43804;BME280;29430;52.924;-2.388;2023-05-10T20:12:05;98962.75;;;13.19;79.84
43804;BME280;29430;52.924;-2.388;2023-05-10T20:16:57;98968.69;;;13.16;80.00
43804;BME280;29430;52.924;-2.388;2023-05-10T20:21:48;98971.88;;;13.07;80.11
43804;BME280;29430;52.924;-2.388;2023-05-10T20:26:40;98968.75;;;12.99;80.32
43804;BME280;29430;52.924;-2.388;2023-05-10T20:31:32;98971.94;;;12.90;80.84
43804;BME280;29430;52.924;-2.388;2023-05-10T20:36:24;98970.16;;;12.79;81.13
43804;BME280;29430;52.924;-2.388;2023-05-10T20:41:17;98972.72;;;12.69;81.80
43804;BME280;29430;52.924;-2.388;2023-05-10T20:46:08;98973.72;;;12.63;82.40
43804;BME280;29430;52.924;-2.388;2023-05-10T20:51:00;98972.91;;;12.62;82.63
43804;BME280;29430;52.924;-2.388;2023-05-10T20:55:52;98980.47;;;12.60;82.80
43804;BME280;29430;52.924;-2.388;2023-05-10T21:00:44;98978.00;;;12.59;82.90
43804;BME280;29430;52.924;-2.388;2023-05-10T21:05:36;98976.63;;;12.56;83.34
43804;BME280;29430;52.924;-2.388;2023-05-10T21:10:27;98981.16;;;12.50;83.75
43804;BME280;29430;52.924;-2.388;2023-05-10T21:15:19;98985.44;;;12.46;83.80
43804;BME280;29430;52.924;-2.388;2023-05-10T21:20:13;98978.25;;;12.40;84.05
43804;BME280;29430;52.924;-2.388;2023-05-10T21:25:05;98984.19;;;12.37;84.20
43804;BME280;29430;52.924;-2.388;2023-05-10T21:29:56;98983.63;;;12.35;84.27
43804;BME280;29430;52.924;-2.388;2023-05-10T21:34:48;98978.94;;;12.30;84.52
43804;BME280;29430;52.924;-2.388;2023-05-10T21:39:39;98984.38;;;12.30;84.76
43804;BME280;29430;52.924;-2.388;2023-05-10T21:44:31;98979.34;;;12.22;84.87
43804;BME280;29430;52.924;-2.388;2023-05-10T21:49:23;98982.69;;;12.12;85.68
43804;BME280;29430;52.924;-2.388;2023-05-10T21:54:14;98975.53;;;12.06;85.81
43804;BME280;29430;52.924;-2.388;2023-05-10T21:59:06;98970.03;;;12.01;86.38
43804;BME280;29430;52.924;-2.388;2023-05-10T22:03:57;98978.09;;;11.96;87.18
43804;BME280;29430;52.924;-2.388;2023-05-10T22:08:49;98976.69;;;11.93;87.51
43804;BME280;29430;52.924;-2.388;2023-05-10T22:13:41;98967.72;;;11.93;87.82
43804;BME280;29430;52.924;-2.388;2023-05-10T22:18:33;98977.38;;;11.89;88.60
43804;BME280;29430;52.924;-2.388;2023-05-10T22:23:24;98973.59;;;11.90;88.68
43804;BME280;29430;52.924;-2.388;2023-05-10T22:28:16;98972.75;;;11.89;88.38
43804;BME280;29430;52.924;-2.388;2023-05-10T22:33:08;98975.03;;;11.92;88.64
43804;BME280;29430;52.924;-2.388;2023-05-10T22:37:59;98968.16;;;11.90;87.98
43804;BME280;29430;52.924;-2.388;2023-05-10T22:42:51;98965.09;;;11.86;88.01
43804;BME280;29430;52.924;-2.388;2023-05-10T22:47:42;98965.25;;;11.79;88.16
43804;BME280;29430;52.924;-2.388;2023-05-10T22:52:34;98961.63;;;11.74;88.22
43804;BME280;29430;52.924;-2.388;2023-05-10T22:57:29;98965.78;;;11.64;88.80
43804;BME280;29430;52.924;-2.388;2023-05-10T23:02:21;98974.00;;;11.53;89.46
43804;BME280;29430;52.924;-2.388;2023-05-10T23:07:13;98971.78;;;11.50;89.63
43804;BME280;29430;52.924;-2.388;2023-05-10T23:12:04;98967.56;;;11.42;90.33
43804;BME280;29430;52.924;-2.388;2023-05-10T23:16:56;98965.22;;;11.34;90.76
43804;BME280;29430;52.924;-2.388;2023-05-10T23:21:48;98964.41;;;11.33;91.53
43804;BME280;29430;52.924;-2.388;2023-05-10T23:26:39;98980.69;;;11.33;91.72
43804;BME280;29430;52.924;-2.388;2023-05-10T23:31:31;98975.75;;;11.30;91.39
43804;BME280;29430;52.924;-2.388;2023-05-10T23:36:23;98975.16;;;11.28;92.17
43804;BME280;29430;52.924;-2.388;2023-05-10T23:41:14;98973.25;;;11.28;91.74
43804;BME280;29430;52.924;-2.388;2023-05-10T23:46:06;98972.22;;;11.29;91.91
43804;BME280;29430;52.924;-2.388;2023-05-10T23:50:57;98973.25;;;11.28;92.53
43804;BME280;29430;52.924;-2.388;2023-05-10T23:55:49;98976.47;;;11.25;92.45
